Weezie Cenac — WDH3888 — position and weather

sailwx.info

Track history (hours):
 
Tides and Currents Weather Stations Pressure Air Temp Water Temp Dewpoint Dewpoint Depression Visibility Wind Speed Wind Dir Waves Ship Positions

Weezie Cenac

Owner: Cenac Marine Services, Houma, LA. More information available from US FCC via Universal Licensing System and Coast Guard Vessel Documentation Center.

Last reported at 2017-Sep-17 03:30 UTC. Time now 2017-Sep-19 13:54 UTC.
Position N 29°50' W 093°59'.

Length 22 m; draft 1.7 m.

Type: Tug. MMSI: 367611960.

Date/timePositionNaut miles runAvg speedWind from/ knotsBaromVisibWave heightAir tempDewpointWater temp
2017-Sep-17 03:30N 29°50' W 093°59'0 0.0
2017-Sep-17 03:00N 29°50' W 093°59'  
2017-Sep-13 17:05N 29°32' W 094°53'0 6.3
2017-Sep-13 17:00N 29°32' W 094°54'3 6.2
2017-Sep-13 16:30N 29°35' W 094°56'3 6.4
2017-Sep-13 16:00N 29°37' W 094°58'3 6.9
2017-Sep-13 15:30N 29°41' W 094°59'4 6.6
2017-Sep-13 14:53N 29°44' W 095°02'6 0.9
2017-Sep-13 08:45N 29°44' W 095°08'5 2.1
2017-Sep-13 06:31N 29°44' W 095°13'0 0.4
2017-Sep-13 06:30N 29°44' W 095°13'3 0.2
2017-Sep-12 10:34N 29°45' W 095°10'1 7.1
2017-Sep-12 10:30N 29°45' W 095°10'4 6.5
2017-Sep-12 09:56N 29°45' W 095°06'  
Track history (hours):
 
Tides and Currents Weather Stations Pressure Air Temp Water Temp Dewpoint Dewpoint Depression Visibility Wind Speed Wind Dir Waves Ship Positions

Weezie Cenac

Owner: Cenac Marine Services, Houma, LA. More information available from US FCC via Universal Licensing System and Coast Guard Vessel Documentation Center.

Last reported at 2017-Sep-17 03:30 UTC. Time now 2017-Sep-19 13:54 UTC.
Position N 29°50' W 093°59'.

Length 22 m; draft 1.7 m.

Type: Tug. MMSI: 367611960.

Date/timePositionNaut miles runAvg speedWind from/ knotsBaromVisibWave heightAir tempDewpointWater temp
2017-Sep-17 03:30N 29°50' W 093°59'0 0.0
2017-Sep-17 03:00N 29°50' W 093°59'  
2017-Sep-13 17:05N 29°32' W 094°53'0 6.3
2017-Sep-13 17:00N 29°32' W 094°54'3 6.2
2017-Sep-13 16:30N 29°35' W 094°56'3 6.4
2017-Sep-13 16:00N 29°37' W 094°58'3 6.9
2017-Sep-13 15:30N 29°41' W 094°59'4 6.6
2017-Sep-13 14:53N 29°44' W 095°02'6 0.9
2017-Sep-13 08:45N 29°44' W 095°08'5 2.1
2017-Sep-13 06:31N 29°44' W 095°13'0 0.4
2017-Sep-13 06:30N 29°44' W 095°13'3 0.2
2017-Sep-12 10:34N 29°45' W 095°10'1 7.1
2017-Sep-12 10:30N 29°45' W 095°10'4 6.5
2017-Sep-12 09:56N 29°45' W 095°06'  

Dump ship's entire track history